Brantwood, Wisconsin
Current Conditions -  °F | °C
As of 2:35 AM on Thursday 29 Jan 2015 (Local Time) from KPBH Reporting Station
Haze Haze  
Wind Chill: 25°   Ceiling: 500
Heat Index: 25°   Visibility: 2.5mi
Dew Point: 24°   Wind: 3mph
Humidity: 96%   Direction: 300°WNW
Pressure: 29.78"   Gusts: NA
Location:  45.56°N, 90.12°W
Report Text: KPBH 290835Z AUTO 30003KT 2 1/2SM BR OVC005 M04/M04 A2978 RMK AO2 T10401045
Loading
Personal Weather Stations






























Interactive Weather Map New forecast layout! Learn more

10-Day Weather Forecast

Advertisements
Track Severe Weather on mobile